CheckWX is a tool to help pilots better visualize weather data.  It is not intended as a substitute for an official pre-flight weather briefing.

01:15:18 UTC

17J METAR
Donalsonville Municipal Airport
Donalsonville, Georgia, USA
Current

20 mins ago

K17J 170055Z AUTO 00000KT 10SM CLR 28/24 A3010 RMK AO2 T02790244
Observed
Jul-17 @ 00:55 UTC
Visibility
10 SM
Flight Rules
VFR
Cloud Levels
  • Clear skies
Temperature
28°C / 82°F
Dewpoint
24°C / 75°F
Heat Index
32°C / 89°F
Humidity
79%
Altimeter
30.1" Hg
Pressure
1019.32 hPa
Previous

40 mins ago

K17J 170035Z AUTO 21004KT 10SM CLR 28/25 A3009 RMK AO2 T02830249
Observed
Jul-17 @ 00:35 UTC
Wind
  • 210° at 4 KTS
Visibility
10 SM
Flight Rules
VFR
Cloud Levels
  • Clear skies
Temperature
28°C / 82°F
Dewpoint
25°C / 77°F
Heat Index
32°C / 90°F
Humidity
84%
Altimeter
30.09" Hg
Pressure
1018.92 hPa
Previous

1 hour ago

K17J 162355Z AUTO 00000KT 10SM CLR 29/25 A3009 RMK AO2 T02910246 10343 20265 403430220
Observed
Jul-16 @ 23:55 UTC
Visibility
10 SM
Flight Rules
VFR
Cloud Levels
  • Clear skies
Temperature
29°C / 84°F
Dewpoint
25°C / 77°F
Heat Index
34°C / 94°F
Humidity
79%
Altimeter
30.09" Hg
Pressure
1018.92 hPa